Time;durP1;ratioP1;P1;durP2;ratioP2;P2;SDS_P1;SDS_P2;PMS_P1;PMS_P2;Temp;Humidity;BMP_temperature;BMP_pressure;BME280_temperature;BME280_humidity;BME280_pressure;Samples;Min_cycle;Max_cycle;Signal;HPM_P1;HPM_P2
2023/07/31 00:01:40;;;;;;;613.38;563.33;;;15.90;82.40;;;;;;6161088;23;20016;-91
2023/07/31 00:04:06;;;;;;;637.67;585.55;;;15.90;82.50;;;;;;6159356;23;20025;-91
2023/07/31 00:06:32;;;;;;;650.28;595.45;;;15.90;82.50;;;;;;6156179;23;20019;-91
2023/07/31 00:08:58;;;;;;;653.88;600.75;;;15.90;82.70;;;;;;6156306;23;20017;-91
2023/07/31 00:11:23;;;;;;;631.80;581.42;;;15.90;82.80;;;;;;6186367;23;20123;-90
2023/07/31 00:13:52;;;;;;;623.80;573.30;;;15.90;82.80;;;;;;6157914;23;20020;-91
2023/07/31 00:16:18;;;;;;;589.45;542.90;;;15.90;82.90;;;;;;6158736;23;20513;-91
2023/07/31 00:18:44;;;;;;;556.28;513.20;;;15.80;83.00;;;;;;6140729;23;20040;-90
2023/07/31 00:21:10;;;;;;;610.90;563.47;;;15.80;83.20;;;;;;6163282;23;20048;-91
2023/07/31 00:23:35;;;;;;;567.80;525.35;;;15.80;83.20;;;;;;6161204;23;20024;-91
2023/07/31 00:26:01;;;;;;;552.42;510.55;;;15.80;83.30;;;;;;6137692;23;20018;-90
2023/07/31 00:28:28;;;;;;;627.40;578.97;;;15.80;83.30;;;;;;6153222;23;20092;-90
2023/07/31 00:30:54;;;;;;;616.80;568.35;;;15.80;83.30;;;;;;6189586;23;20026;-91
2023/07/31 00:33:22;;;;;;;588.35;542.90;;;15.80;83.50;;;;;;6216878;23;20051;-90
2023/07/31 00:35:57;;;;;;;562.17;519.40;;;15.80;83.60;;;;;;6193321;23;20073;-91
2023/07/31 00:38:26;;;;;;;596.75;550.58;;;15.80;83.50;;;;;;6186540;23;20377;-92
2023/07/31 00:41:07;;;;;;;575.22;531.10;;;15.80;84.00;;;;;;6194375;23;20020;-94
2023/07/31 00:49:05;;;;;;;;;;;;;;;;;;;;;
2023/07/31 00:56:36;;;;;;;472.45;439.65;;;15.60;84.50;;;;;;5701697;24;20048;-92
2023/07/31 01:00:57;;;;;;;;;;;;;;;;;;;;;
2023/07/31 01:09:15;;;;;;;509.88;473.25;;;15.40;84.30;;;;;;5717405;24;20026;-91
2023/07/31 01:12:24;;;;;;;480.50;446.80;;;15.40;84.30;;;;;;5794310;24;20022;-93
2023/07/31 01:19:06;;;;;;;;;;;;;;;;;;;;;
2023/07/31 01:25:52;;;;;;;;;;;;;;;;;;;;;
2023/07/31 01:28:38;;;;;;;;;;;;;;;;;;;;;
2023/07/31 01:31:16;;;;;;;456.00;424.17;;;15.30;84.80;;;;;;6153212;23;20017;-91
2023/07/31 01:40:36;;;;;;;483.20;449.92;;;15.30;85.00;;;;;;6135749;23;20196;-92
2023/07/31 01:43:55;;;;;;;468.42;436.48;;;15.20;85.10;;;;;;6107609;23;20022;-93
2023/07/31 01:50:36;;;;;;;451.73;420.63;;;15.20;85.20;;;;;;6043560;23;20122;-92
2023/07/31 01:53:25;;;;;;;437.17;407.45;;;15.20;85.40;;;;;;6071107;23;20025;-92
2023/07/31 02:06:25;;;;;;;423.15;394.52;;;15.20;85.40;;;;;;5993576;23;20035;-92
2023/07/31 02:12:41;;;;;;;;;;;;;;;;;;;;;
2023/07/31 02:15:38;;;;;;;454.15;423.70;;;15.20;85.40;;;;;;5939514;23;20016;-92
2023/07/31 02:18:58;;;;;;;441.40;411.75;;;15.20;85.40;;;;;;5934145;24;20028;-93
2023/07/31 02:21:47;;;;;;;437.50;408.35;;;15.20;85.40;;;;;;5947354;24;20035;-92
2023/07/31 02:25:01;;;;;;;444.23;414.67;;;15.20;85.50;;;;;;5921531;23;20023;-92
2023/07/31 02:27:56;;;;;;;432.00;402.75;;;15.20;85.50;;;;;;5999005;23;20092;-92
2023/07/31 02:34:57;;;;;;;;;;;;;;;;;;;;;
2023/07/31 02:41:36;;;;;;;;;;;;;;;;;;;;;
2023/07/31 02:44:15;;;;;;;;;;;;;;;;;;;;;
2023/07/31 02:47:38;;;;;;;419.75;391.08;;;15.10;85.60;;;;;;6099818;23;20009;-94
2023/07/31 02:50:28;;;;;;;;;;;;;;;;;;;;;
2023/07/31 02:53:48;;;;;;;431.42;401.60;;;15.10;85.70;;;;;;6076203;23;20018;-92
2023/07/31 03:00:11;;;;;;;418.55;391.92;;;15.10;85.70;;;;;;6114679;23;20184;-92
2023/07/31 03:02:40;;;;;;;423.70;395.10;;;15.10;85.80;;;;;;6141371;23;20020;-92
2023/07/31 03:05:29;;;;;;;443.33;413.15;;;15.10;85.90;;;;;;6177436;23;20020;-92
2023/07/31 03:08:49;;;;;;;;;;;;;;;;;;;;;
2023/07/31 03:11:23;;;;;;;439.52;407.85;;;15.10;85.70;;;;;;6206185;23;20492;-92
2023/07/31 03:14:31;;;;;;;;;;;;;;;;;;;;;
2023/07/31 03:17:12;;;;;;;408.17;380.05;;;15.10;85.70;;;;;;6188476;23;20019;-92
2023/07/31 03:19:49;;;;;;;439.70;409.08;;;15.00;85.80;;;;;;6109496;23;20024;-92
2023/07/31 03:22:20;;;;;;;424.00;395.38;;;15.00;85.80;;;;;;6122988;23;20025;-91
2023/07/31 03:24:51;;;;;;;;;;;15.10;85.70;;;;;;6161716;23;20095;-92
2023/07/31 03:28:07;;;;;;;389.85;364.38;;;15.10;85.80;;;;;;6123279;23;20220;-92
2023/07/31 03:31:14;;;;;;;406.42;379.15;;;15.00;85.70;;;;;;6154435;23;20600;-92
2023/07/31 03:34:01;;;;;;;425.85;397.55;;;15.10;85.70;;;;;;6153431;23;20023;-92
2023/07/31 03:36:37;;;;;;;422.13;393.70;;;15.00;85.80;;;;;;6188219;23;20012;-94
2023/07/31 03:39:15;;;;;;;433.50;404.00;;;15.00;85.80;;;;;;6190996;23;20051;-92
2023/07/31 03:42:07;;;;;;;460.98;429.33;;;15.00;85.90;;;;;;6192355;23;20023;-92
2023/07/31 03:44:40;;;;;;;409.40;382.50;;;15.00;85.80;;;;;;6189970;23;20020;-93
2023/07/31 03:47:09;;;;;;;419.08;390.90;;;15.00;85.70;;;;;;6169670;23;20075;-92
2023/07/31 03:49:43;;;;;;;432.23;402.80;;;15.00;85.80;;;;;;6163768;23;20463;-91
2023/07/31 03:52:37;;;;;;;457.20;425.77;;;15.00;85.70;;;;;;6172780;23;20108;-91
2023/07/31 03:55:05;;;;;;;402.25;375.48;;;15.00;85.70;;;;;;6152960;23;20020;-91
2023/07/31 03:57:39;;;;;;;436.75;406.48;;;15.00;85.70;;;;;;6172434;23;20522;-92
2023/07/31 04:00:11;;;;;;;415.58;388.23;;;15.00;85.80;;;;;;6198540;23;20020;-91
2023/07/31 04:02:51;;;;;;;422.90;395.02;;;15.00;85.70;;;;;;6161931;23;20023;-91
2023/07/31 04:05:20;;;;;;;430.63;401.25;;;15.00;85.70;;;;;;6194622;23;20020;-91
2023/07/31 04:07:48;;;;;;;414.75;386.65;;;15.00;85.80;;;;;;6141795;23;20052;-92
2023/07/31 04:10:17;;;;;;;435.30;405.58;;;15.00;85.80;;;;;;6193668;23;20025;-91
2023/07/31 04:12:48;;;;;;;414.10;386.85;;;15.00;85.70;;;;;;6200518;23;20533;-92
2023/07/31 04:15:19;;;;;;;426.95;398.52;;;15.00;85.90;;;;;;6168294;23;20061;-91
2023/07/31 04:17:50;;;;;;;431.13;402.13;;;15.00;85.80;;;;;;6138064;23;20563;-92
2023/07/31 04:20:44;;;;;;;443.00;413.63;;;15.00;85.80;;;;;;6143026;23;20126;-92
2023/07/31 04:23:14;;;;;;;413.75;386.63;;;15.00;85.80;;;;;;6185344;23;20051;-91
2023/07/31 04:25:46;;;;;;;433.00;403.80;;;15.00;85.80;;;;;;6135965;23;20087;-91
2023/07/31 04:28:17;;;;;;;502.83;466.67;;;15.00;85.90;;;;;;6140694;23;20324;-92
2023/07/31 04:30:43;;;;;;;427.30;399.02;;;15.00;85.80;;;;;;6193936;23;20019;-91
2023/07/31 04:33:29;;;;;;;442.77;413.13;;;15.00;85.80;;;;;;6157522;23;20106;-91
2023/07/31 04:36:13;;;;;;;431.88;403.08;;;15.00;85.80;;;;;;6193742;23;20019;-91
2023/07/31 04:38:48;;;;;;;437.08;407.35;;;15.00;85.80;;;;;;6188371;23;20020;-90
2023/07/31 04:41:19;;;;;;;414.08;387.38;;;15.00;85.80;;;;;;6193618;23;20397;-91
2023/07/31 04:43:45;;;;;;;429.45;400.30;;;15.00;85.80;;;;;;6175875;23;20016;-91
2023/07/31 04:46:13;;;;;;;451.85;420.48;;;15.00;86.00;;;;;;6167319;23;20103;-94
2023/07/31 04:48:47;;;;;;;427.98;398.85;;;15.00;85.90;;;;;;6180963;23;20035;-91
2023/07/31 04:51:16;;;;;;;452.85;422.08;;;15.00;85.70;;;;;;6194339;23;20012;-92
2023/07/31 04:53:58;;;;;;;429.98;401.40;;;15.00;85.80;;;;;;6191158;23;20031;-91
2023/07/31 04:56:32;;;;;;;419.17;391.90;;;15.00;85.80;;;;;;6189963;23;20024;-92
2023/07/31 04:59:08;;;;;;;438.35;408.90;;;15.00;85.80;;;;;;6188581;23;20395;-91
2023/07/31 05:01:36;;;;;;;411.88;384.02;;;15.00;85.80;;;;;;6193617;23;20020;-92
2023/07/31 05:04:07;;;;;;;307.27;287.00;;;15.00;85.90;;;;;;6214768;23;20024;-91
2023/07/31 05:06:33;;;;;;;438.52;409.00;;;15.00;85.80;;;;;;6187862;23;20044;-92
2023/07/31 05:09:09;;;;;;;432.45;402.58;;;15.00;85.90;;;;;;6174407;23;20535;-91
2023/07/31 05:11:40;;;;;;;416.42;388.92;;;15.00;85.90;;;;;;6218357;23;20023;-91
2023/07/31 05:14:09;;;;;;;437.05;408.30;;;15.00;86.10;;;;;;6177779;23;20102;-91
2023/07/31 05:16:35;;;;;;;412.35;384.85;;;15.00;86.10;;;;;;6188406;23;20019;-93
2023/07/31 05:19:04;;;;;;;426.52;398.27;;;15.00;86.00;;;;;;6187532;23;20095;-90
2023/07/31 05:21:30;;;;;;;428.17;399.92;;;15.00;86.10;;;;;;6193105;23;20425;-91
2023/07/31 05:23:58;;;;;;;430.35;400.95;;;15.00;86.00;;;;;;6188888;23;20050;-91
2023/07/31 05:26:24;;;;;;;437.63;408.27;;;15.00;86.10;;;;;;6190110;23;20218;-93
2023/07/31 05:28:53;;;;;;;445.92;416.83;;;15.00;86.10;;;;;;6171841;23;20489;-91
2023/07/31 05:31:22;;;;;;;428.95;400.33;;;15.00;86.10;;;;;;6192851;23;20031;-91
2023/07/31 05:33:50;;;;;;;447.90;418.00;;;15.00;86.20;;;;;;6198684;23;20024;-92
2023/07/31 05:36:17;;;;;;;438.80;409.02;;;15.10;86.20;;;;;;6190833;23;20047;-93
2023/07/31 05:38:46;;;;;;;454.85;424.45;;;15.10;86.20;;;;;;6187433;23;20020;-91
2023/07/31 05:41:13;;;;;;;422.17;394.45;;;15.10;86.30;;;;;;6193032;23;20023;-91
2023/07/31 05:43:42;;;;;;;452.20;421.45;;;15.20;86.30;;;;;;6190715;23;20393;-91
2023/07/31 05:46:09;;;;;;;438.98;409.65;;;15.20;86.30;;;;;;6192414;23;20024;-93
2023/07/31 05:48:35;;;;;;;433.13;403.70;;;15.20;86.30;;;;;;6183520;23;20084;-90
2023/07/31 05:51:04;;;;;;;502.45;466.10;;;15.20;86.30;;;;;;6192867;23;20052;-92
2023/07/31 05:53:40;;;;;;;482.65;447.33;;;15.20;86.40;;;;;;6191609;23;20028;-91
2023/07/31 05:56:27;;;;;;;496.15;459.92;;;15.20;86.40;;;;;;6191223;23;20039;-95
2023/07/31 05:58:53;;;;;;;425.95;397.20;;;15.20;86.40;;;;;;6168280;23;20024;-92
2023/07/31 06:01:26;;;;;;;505.42;467.95;;;15.20;86.40;;;;;;6193015;23;20027;-91
2023/07/31 06:03:57;;;;;;;449.20;418.15;;;15.30;86.50;;;;;;6165793;23;20043;-91
2023/07/31 06:06:22;;;;;;;466.70;434.33;;;15.30;86.40;;;;;;6189833;23;20023;-92
2023/07/31 06:08:51;;;;;;;465.05;432.40;;;15.30;86.40;;;;;;6186194;23;20096;-91
2023/07/31 06:11:18;;;;;;;466.85;435.23;;;15.30;86.40;;;;;;6193208;23;20098;-91
2023/07/31 06:13:46;;;;;;;466.20;433.52;;;15.40;86.40;;;;;;6174277;23;20028;-91
2023/07/31 06:16:30;;;;;;;462.70;429.52;;;15.40;86.40;;;;;;6180201;23;20054;-93
2023/07/31 06:18:58;;;;;;;449.80;418.83;;;15.40;86.60;;;;;;6171527;23;20039;-91
2023/07/31 06:21:37;;;;;;;467.17;434.27;;;15.40;86.70;;;;;;6192625;23;20103;-92
2023/07/31 06:24:04;;;;;;;458.02;425.67;;;15.50;86.70;;;;;;6174451;23;20024;-92
2023/07/31 06:26:46;;;;;;;549.50;508.00;;;15.50;86.70;;;;;;6212218;23;20612;-93
2023/07/31 06:29:12;;;;;;;471.23;437.75;;;15.50;86.80;;;;;;6176817;23;20020;-91
2023/07/31 06:31:41;;;;;;;500.10;463.52;;;15.60;86.80;;;;;;6191596;23;20026;-94
2023/07/31 06:34:19;;;;;;;;;;;;;;;;;;;;;
2023/07/31 06:37:25;;;;;;;472.08;438.13;;;15.50;86.70;;;;;;6216894;23;20012;-96
2023/07/31 06:39:51;;;;;;;431.60;401.15;;;15.60;86.90;;;;;;6191058;23;20019;-91
2023/07/31 06:42:34;;;;;;;;;;;;;;;;;;;;;
2023/07/31 06:45:23;;;;;;;;;;;;;;;;;;;;;
2023/07/31 06:48:12;;;;;;;502.27;463.42;;;15.60;87.20;;;;;;6182188;23;20020;-91
2023/07/31 06:50:48;;;;;;;457.92;425.50;;;15.70;87.10;;;;;;6181409;23;20016;-91
2023/07/31 06:53:34;;;;;;;476.67;440.75;;;15.80;87.10;;;;;;6137563;23;20489;-90
2023/07/31 06:56:36;;;;;;;482.20;446.10;;;15.80;87.10;;;;;;6130964;23;20013;-91
2023/07/31 07:13:48;;;;;;;534.25;493.80;;;16.10;87.20;;;;;;5900834;24;20051;-91
2023/07/31 07:20:50;;;;;;;486.58;448.08;;;16.20;87.10;;;;;;5786689;24;20058;-92
2023/07/31 07:23:29;;;;;;;;;;;;;;;;;;;;;
2023/07/31 07:26:12;;;;;;;492.60;455.30;;;16.20;87.10;;;;;;5782889;24;20092;-91
2023/07/31 07:28:41;;;;;;;502.52;464.65;;;16.30;86.80;;;;;;5894060;24;20364;-92
2023/07/31 07:31:37;;;;;;;;;;;;;;;;;;;;;
2023/07/31 07:34:37;;;;;;;489.42;453.08;;;16.20;86.60;;;;;;6010879;23;20027;-93
2023/07/31 07:49:22;;;;;;;603.42;553.97;;;16.40;87.00;;;;;;5100344;27;20450;-93
2023/07/31 07:52:49;;;;;;;;;;;;;;;;;;;;;
2023/07/31 07:55:46;;;;;;;473.83;440.23;;;16.40;86.90;;;;;;5031870;28;20424;-90
2023/07/31 08:14:39;;;;;;;422.48;392.40;;;16.60;87.20;;;;;;4913869;28;20122;-92
2023/07/31 08:21:50;;;;;;;;;;;;;;;;;;;;;
2023/07/31 08:28:56;;;;;;;447.25;416.58;;;16.50;86.70;;;;;;4848400;29;21115;-96
2023/07/31 08:31:34;;;;;;;458.55;426.08;;;16.50;86.80;;;;;;4801542;29;20046;-93
2023/07/31 08:37:45;;;;;;;529.40;491.10;;;16.50;86.80;;;;;;4853466;29;20065;-93
2023/07/31 08:41:06;;;;;;;;;;;;;;;;;;;;;
2023/07/31 08:44:53;;;;;;;;;;;;;;;;;;;;;
2023/07/31 08:48:04;;;;;;;571.55;526.05;;;16.70;87.20;;;;;;4819728;29;20137;-93
2023/07/31 08:50:46;;;;;;;554.75;513.92;;;16.80;86.90;;;;;;4822647;29;20156;-93
2023/07/31 08:57:17;;;;;;;;;;;;;;;;;;;;;
2023/07/31 08:59:57;;;;;;;514.70;475.50;;;16.80;86.60;;;;;;4787446;29;20546;-91
2023/07/31 09:02:40;;;;;;;;;;;;;;;;;;;;;
2023/07/31 09:05:12;;;;;;;646.95;591.78;;;16.80;86.70;;;;;;4947808;28;20883;-93
2023/07/31 09:07:49;;;;;;;597.58;552.30;;;16.80;86.70;;;;;;4969820;28;20052;-92
2023/07/31 09:11:16;;;;;;;580.55;535.58;;;16.90;86.80;;;;;;5027094;28;20067;-93
2023/07/31 09:14:38;;;;;;;;;;;;;;;;;;;;;
2023/07/31 09:17:51;;;;;;;496.75;460.27;;;16.90;86.80;;;;;;4982874;28;20055;-91
2023/07/31 09:20:26;;;;;;;518.88;480.33;;;16.90;86.60;;;;;;4943174;28;20067;-93
2023/07/31 09:22:55;;;;;;;640.30;584.00;;;16.90;86.70;;;;;;5019333;28;20044;-92
2023/07/31 09:25:27;;;;;;;563.10;520.35;;;16.90;86.70;;;;;;5053274;28;20044;-92
2023/07/31 09:28:32;;;;;;;701.88;636.95;;;16.90;86.60;;;;;;5039332;28;20088;-91
2023/07/31 09:31:12;;;;;;;581.05;538.08;;;16.90;86.80;;;;;;4939019;28;20436;-91
2023/07/31 09:34:02;;;;;;;498.13;461.15;;;17.00;87.00;;;;;;4917820;28;20150;-93
2023/07/31 09:37:17;;;;;;;573.70;530.72;;;17.00;86.90;;;;;;4937326;28;20046;-92
2023/07/31 09:40:04;;;;;;;;;;;;;;;;;;;;;
2023/07/31 09:42:57;;;;;;;569.47;525.03;;;17.10;86.90;;;;;;5039328;28;20048;-92
2023/07/31 09:49:02;;;;;;;572.85;529.53;;;17.20;86.80;;;;;;5088095;27;20139;-92
2023/07/31 09:52:10;;;;;;;;;;;;;;;;;;;;;
2023/07/31 09:54:57;;;;;;;585.25;540.63;;;17.30;87.10;;;;;;5064208;27;20256;-91
2023/07/31 10:00:50;;;;;;;604.10;554.47;;;17.40;86.80;;;;;;5093584;27;20456;-93
2023/07/31 10:03:56;;;;;;;;;;;;;;;;;;;;;
2023/07/31 10:06:30;;;;;;;621.40;571.42;;;17.50;86.90;;;;;;5097364;27;20067;-93
2023/07/31 10:09:02;;;;;;;617.17;567.25;;;17.50;86.90;;;;;;5061182;27;20487;-92
2023/07/31 10:12:04;;;;;;;619.47;568.88;;;17.60;86.80;;;;;;5066027;27;20142;-93
2023/07/31 10:14:33;;;;;;;635.83;587.08;;;17.50;86.60;;;;;;5057952;27;20092;-92
2023/07/31 10:20:41;;;;;;;732.47;665.55;;;17.40;85.80;;;;;;4976648;28;20584;-91
2023/07/31 10:23:13;;;;;;;620.17;572.88;;;17.30;85.80;;;;;;5033823;27;20070;-92
2023/07/31 10:25:47;;;;;;;603.25;555.42;;;17.20;86.00;;;;;;5068295;27;20077;-91
2023/07/31 10:32:10;;;;;;;;;;;;;;;;;;;;;
2023/07/31 10:46:30;;;;;;;621.40;565.05;;;17.50;86.30;;;;;;4952490;28;20186;-92
2023/07/31 10:50:10;;;;;;;;;;;;;;;;;;;;;
2023/07/31 10:53:09;;;;;;;528.47;489.45;;;17.50;85.80;;;;;;4880197;29;20548;-94
2023/07/31 10:56:19;;;;;;;848.63;757.10;;;17.60;86.10;;;;;;4903635;29;20227;-94
2023/07/31 10:59:17;;;;;;;599.53;551.72;;;17.80;86.10;;;;;;4824888;29;20061;-94
2023/07/31 11:02:02;;;;;;;606.17;559.08;;;18.00;86.50;;;;;;4834964;29;20064;-91
2023/07/31 11:05:08;;;;;;;742.08;674.53;;;18.00;85.10;;;;;;4754449;29;20052;-92
2023/07/31 11:08:22;;;;;;;603.20;557.55;;;18.00;84.50;;;;;;4851952;29;20083;-93
2023/07/31 11:11:10;;;;;;;610.20;562.40;;;18.00;85.10;;;;;;4819328;29;20076;-91
2023/07/31 11:13:53;;;;;;;590.97;545.95;;;18.00;85.00;;;;;;4839567;29;20080;-92
2023/07/31 11:20:13;;;;;;;591.20;545.55;;;18.00;84.70;;;;;;5003560;28;20056;-91
2023/07/31 11:22:44;;;;;;;655.33;604.05;;;18.00;85.10;;;;;;5016278;28;20109;-92
2023/07/31 11:25:16;;;;;;;711.08;650.42;;;18.00;85.10;;;;;;5020276;28;20040;-93
2023/07/31 11:27:43;;;;;;;673.55;619.38;;;18.00;84.90;;;;;;5022148;28;20048;-91
2023/07/31 11:30:23;;;;;;;637.20;588.40;;;17.90;85.00;;;;;;5053050;28;21464;-93
2023/07/31 11:32:52;;;;;;;642.23;592.53;;;17.90;85.00;;;;;;5041222;28;20482;-91
2023/07/31 11:35:41;;;;;;;654.08;602.55;;;17.90;85.20;;;;;;5064305;28;20290;-95
2023/07/31 11:38:36;;;;;;;676.08;622.22;;;17.90;85.30;;;;;;5056424;28;20056;-92
2023/07/31 11:44:00;;;;;;;595.15;550.22;;;18.00;85.70;;;;;;4994325;28;20055;-92
2023/07/31 11:46:56;;;;;;;663.47;607.45;;;18.00;85.90;;;;;;5045120;28;20698;-95
2023/07/31 11:49:42;;;;;;;856.88;764.70;;;18.10;86.00;;;;;;5055340;28;20120;-95
2023/07/31 11:52:32;;;;;;;694.63;638.15;;;18.20;86.00;;;;;;5056627;27;20103;-91
2023/07/31 11:55:01;;;;;;;701.42;640.53;;;18.30;85.80;;;;;;5075862;28;20157;-92
2023/07/31 11:57:28;;;;;;;683.80;629.17;;;18.40;85.80;;;;;;5067021;27;20036;-92
2023/07/31 11:59:55;;;;;;;695.58;637.38;;;18.30;85.00;;;;;;5082152;28;20107;-91
2023/07/31 12:02:45;;;;;;;;;;;;;;;;;;;;;
2023/07/31 12:05:17;;;;;;;731.50;670.78;;;18.30;85.00;;;;;;5084623;28;20043;-92
2023/07/31 12:08:10;;;;;;;;;;;;;;;;;;;;;
2023/07/31 12:11:14;;;;;;;652.97;602.08;;;18.20;84.70;;;;;;5080844;28;20067;-93
2023/07/31 12:14:19;;;;;;;658.13;606.75;;;18.10;84.90;;;;;;5076807;27;20043;-92
2023/07/31 12:17:50;;;;;;;641.95;591.72;;;18.10;85.10;;;;;;5072873;28;20078;-94
2023/07/31 12:20:26;;;;;;;666.30;613.58;;;18.10;85.50;;;;;;5057783;28;20573;-89
2023/07/31 12:23:09;;;;;;;637.85;589.15;;;18.10;85.60;;;;;;5072064;28;20048;-91
2023/07/31 12:25:36;;;;;;;814.95;733.33;;;18.10;85.10;;;;;;5073371;28;20042;-89
2023/07/31 12:29:12;;;;;;;671.03;617.15;;;18.10;85.00;;;;;;5061625;28;20182;-93
2023/07/31 12:32:01;;;;;;;724.42;659.42;;;18.20;85.50;;;;;;4991615;28;20052;-87
2023/07/31 12:42:53;;;;;;;;;;;;;;;;;;;;;
2023/07/31 12:45:26;;;;;;;701.70;641.15;;;18.50;85.00;;;;;;4907066;29;20059;-92
2023/07/31 12:48:43;;;;;;;;;;;;;;;;;;;;;
2023/07/31 12:51:36;;;;;;;760.47;687.85;;;18.50;84.00;;;;;;4932560;28;20082;-93
2023/07/31 12:58:14;;;;;;;655.63;603.63;;;18.50;83.50;;;;;;4961575;28;20446;-92
2023/07/31 13:01:23;;;;;;;630.58;582.63;;;18.50;83.20;;;;;;4973843;28;21367;-93
2023/07/31 13:08:09;;;;;;;658.67;606.05;;;18.40;83.90;;;;;;4949131;28;20059;-95
2023/07/31 13:11:16;;;;;;;742.55;673.72;;;18.40;84.10;;;;;;4934938;28;20173;-94
2023/07/31 13:13:41;;;;;;;638.58;589.22;;;18.40;83.40;;;;;;4930209;28;20054;-91
2023/07/31 13:17:14;;;;;;;742.63;672.40;;;18.40;83.80;;;;;;4953218;28;20064;-95
2023/07/31 13:23:06;;;;;;;697.40;632.35;;;18.50;84.00;;;;;;5037070;28;20702;-93
2023/07/31 13:25:40;;;;;;;710.70;645.15;;;18.50;83.40;;;;;;5027932;28;20169;-91
2023/07/31 13:28:09;;;;;;;904.28;805.15;;;18.60;83.10;;;;;;4992677;28;20302;-91
2023/07/31 13:30:37;;;;;;;754.30;682.67;;;18.60;83.30;;;;;;5038052;27;20426;-91
2023/07/31 13:36:25;;;;;;;840.28;760.20;;;18.70;82.30;;;;;;5071240;27;20081;-91
2023/07/31 13:39:13;;;;;;;673.13;620.33;;;18.70;81.80;;;;;;5067593;27;20047;-93
2023/07/31 13:42:22;;;;;;;;;;;;;;;;;;;;;
2023/07/31 13:45:14;;;;;;;;;;;;;;;;;;;;;
2023/07/31 13:48:22;;;;;;;698.47;643.65;;;19.00;82.60;;;;;;5058310;27;20051;-93
2023/07/31 13:50:51;;;;;;;687.35;634.08;;;19.10;82.30;;;;;;5067869;27;20066;-94
2023/07/31 13:55:06;;;;;;;;;;;;;;;;;;;;;
2023/07/31 13:57:00;;;;;;;682.78;623.95;;;19.20;81.70;;;;;;5070016;27;20059;-93
2023/07/31 14:00:17;;;;;;;;;;;;;;;;;;;;;
2023/07/31 14:02:54;;;;;;;780.13;709.75;;;19.30;80.80;;;;;;5042192;27;20959;-91
2023/07/31 14:05:41;;;;;;;801.95;730.42;;;19.40;80.00;;;;;;5072290;27;20048;-92
2023/07/31 14:08:55;;;;;;;615.45;561.95;;;19.50;80.10;;;;;;5059095;27;20128;-94
2023/07/31 14:11:22;;;;;;;704.10;646.60;;;19.50;78.70;;;;;;5081267;28;20093;-92
2023/07/31 14:13:53;;;;;;;646.58;589.50;;;19.50;80.00;;;;;;5030129;28;20626;-91
2023/07/31 14:19:47;;;;;;;689.80;636.53;;;19.40;79.20;;;;;;5098313;27;20051;-92
2023/07/31 14:22:13;;;;;;;720.20;654.22;;;19.30;79.80;;;;;;5037577;27;20109;-89
2023/07/31 14:24:52;;;;;;;708.78;653.72;;;19.30;79.70;;;;;;5093096;27;20048;-91
2023/07/31 14:27:31;;;;;;;;;;;;;;;;;;;;;
2023/07/31 14:30:26;;;;;;;641.63;583.67;;;19.20;80.00;;;;;;5062209;27;20054;-91
2023/07/31 14:34:11;;;;;;;;;;;;;;;;;;;;;
2023/07/31 14:36:40;;;;;;;668.55;615.88;;;19.20;79.20;;;;;;5094125;27;20046;-90
2023/07/31 14:39:09;;;;;;;672.30;621.72;;;19.20;79.60;;;;;;5086123;27;20047;-89
2023/07/31 14:41:43;;;;;;;699.78;645.50;;;19.10;79.50;;;;;;5053117;27;20933;-91
2023/07/31 14:44:14;;;;;;;702.15;647.42;;;19.10;79.80;;;;;;5052924;28;20052;-90
2023/07/31 14:46:47;;;;;;;664.15;613.63;;;19.10;79.90;;;;;;5061761;27;20056;-90
2023/07/31 14:49:37;;;;;;;670.65;620.00;;;19.10;79.70;;;;;;5040727;27;20059;-92
2023/07/31 14:52:07;;;;;;;695.00;631.17;;;19.10;80.00;;;;;;5080673;27;21058;-90
2023/07/31 14:54:53;;;;;;;696.55;642.85;;;19.10;80.00;;;;;;5080409;27;20047;-91
2023/07/31 15:00:33;;;;;;;;;;;;;;;;;;;;;
2023/07/31 15:03:36;;;;;;;658.63;608.63;;;19.00;79.20;;;;;;5101254;27;20869;-91
2023/07/31 15:06:07;;;;;;;673.58;621.47;;;19.00;79.40;;;;;;5088689;27;20083;-91
2023/07/31 15:08:38;;;;;;;679.20;627.13;;;18.90;79.70;;;;;;5022434;27;20056;-92
2023/07/31 15:11:07;;;;;;;634.70;586.90;;;18.90;79.90;;;;;;5081941;27;20048;-92
2023/07/31 15:13:46;;;;;;;;;;;;;;;;;;;;;
2023/07/31 15:17:08;;;;;;;608.70;563.55;;;18.80;80.30;;;;;;5029882;27;20621;-91
2023/07/31 15:19:54;;;;;;;635.92;588.13;;;18.70;80.50;;;;;;5058572;27;20067;-92
2023/07/31 15:22:45;;;;;;;656.42;606.05;;;18.70;80.60;;;;;;5075234;27;20059;-91
2023/07/31 15:25:33;;;;;;;846.38;762.70;;;18.70;80.70;;;;;;5104878;27;20051;-90
2023/07/31 15:28:01;;;;;;;650.13;600.55;;;18.70;80.60;;;;;;5051453;27;20551;-90
2023/07/31 15:31:22;;;;;;;;;;;;;;;;;;;;;
2023/07/31 15:34:25;;;;;;;619.08;572.78;;;18.70;80.50;;;;;;5068659;27;20069;-91
2023/07/31 15:37:08;;;;;;;634.38;586.92;;;18.60;80.70;;;;;;5079746;28;20067;-90
2023/07/31 15:39:40;;;;;;;672.00;620.45;;;18.70;80.80;;;;;;5085470;28;20092;-91
2023/07/31 15:42:16;;;;;;;;;;;;;;;;;;;;;
2023/07/31 15:44:56;;;;;;;669.88;619.83;;;18.60;81.10;;;;;;5102108;27;20051;-90
2023/07/31 15:47:49;;;;;;;611.08;565.17;;;18.70;81.00;;;;;;5063007;27;20803;-90
2023/07/31 15:50:14;;;;;;;654.10;604.30;;;18.60;81.00;;;;;;5096469;28;20044;-90
2023/07/31 15:52:40;;;;;;;729.70;662.72;;;18.60;81.10;;;;;;5082260;27;20137;-91
2023/07/31 15:55:27;;;;;;;671.53;619.17;;;18.70;81.10;;;;;;5077774;28;21722;-90
2023/07/31 15:57:56;;;;;;;708.30;652.85;;;18.60;81.00;;;;;;5056020;28;20438;-91
2023/07/31 16:00:45;;;;;;;650.65;600.53;;;18.60;81.00;;;;;;5080247;28;20166;-93
2023/07/31 16:03:38;;;;;;;683.08;631.65;;;18.60;81.00;;;;;;5082669;28;20065;-91
2023/07/31 16:10:07;;;;;;;613.85;569.28;;;18.60;80.70;;;;;;5002339;27;20035;-92
2023/07/31 16:13:08;;;;;;;711.15;646.95;;;18.60;80.90;;;;;;5053211;28;20055;-94
2023/07/31 16:15:37;;;;;;;642.33;589.77;;;18.60;80.60;;;;;;5068907;27;20058;-94
2023/07/31 16:18:14;;;;;;;601.92;557.67;;;18.60;80.80;;;;;;5052324;27;20465;-91
2023/07/31 16:21:24;;;;;;;621.92;576.72;;;18.60;80.90;;;;;;5063954;27;20087;-93
2023/07/31 16:24:09;;;;;;;595.00;550.83;;;18.60;80.80;;;;;;5060618;27;20179;-91
2023/07/31 16:27:44;;;;;;;;;;;;;;;;;;;;;
2023/07/31 16:30:13;;;;;;;639.13;583.25;;;18.60;81.00;;;;;;5045515;27;20066;-90
2023/07/31 16:33:08;;;;;;;608.85;563.63;;;18.60;81.00;;;;;;5074054;27;20055;-91
2023/07/31 16:36:19;;;;;;;;;;;;;;;;;;;;;
2023/07/31 16:38:58;;;;;;;673.20;613.83;;;18.60;80.80;;;;;;5082547;27;20071;-91
2023/07/31 16:41:29;;;;;;;652.38;594.85;;;18.60;80.90;;;;;;5068914;27;20048;-91
2023/07/31 16:44:16;;;;;;;612.88;567.50;;;18.60;81.00;;;;;;5073802;27;20047;-91
2023/07/31 16:46:45;;;;;;;679.15;618.78;;;18.60;80.80;;;;;;5064988;27;20908;-91
2023/07/31 16:49:11;;;;;;;638.08;589.15;;;18.60;80.90;;;;;;5084850;27;21053;-90
2023/07/31 16:51:40;;;;;;;608.53;562.78;;;18.60;80.90;;;;;;5087679;27;20800;-94
2023/07/31 16:54:06;;;;;;;685.70;623.75;;;18.60;80.90;;;;;;5080592;27;20043;-91
2023/07/31 16:56:32;;;;;;;637.20;589.65;;;18.60;80.80;;;;;;5082178;27;20155;-89
2023/07/31 16:58:58;;;;;;;640.80;591.58;;;18.60;80.90;;;;;;5065539;27;21501;-90
2023/07/31 17:01:30;;;;;;;632.35;584.53;;;18.60;81.10;;;;;;5085573;27;20101;-90
2023/07/31 17:03:59;;;;;;;671.95;610.92;;;18.60;80.90;;;;;;5066977;27;20058;-89
2023/07/31 17:06:28;;;;;;;632.22;585.08;;;18.60;80.90;;;;;;5065893;27;20558;-90
2023/07/31 17:09:14;;;;;;;636.80;588.40;;;18.60;81.00;;;;;;5061097;27;20107;-89
2023/07/31 17:11:40;;;;;;;599.95;555.92;;;18.60;81.00;;;;;;5098917;27;20926;-92
2023/07/31 17:14:09;;;;;;;653.40;604.42;;;18.50;81.00;;;;;;5042718;27;20058;-91
2023/07/31 17:16:35;;;;;;;635.83;587.83;;;18.50;81.00;;;;;;5042490;27;20047;-92
2023/07/31 17:19:05;;;;;;;649.13;600.67;;;18.50;81.00;;;;;;5072201;27;20055;-90
2023/07/31 17:21:33;;;;;;;628.60;581.85;;;18.50;80.90;;;;;;5077419;27;20059;-92
2023/07/31 17:24:01;;;;;;;694.70;632.00;;;18.50;80.90;;;;;;5033878;27;20051;-90
2023/07/31 17:26:29;;;;;;;684.75;631.85;;;18.40;81.10;;;;;;5060342;27;20040;-91
2023/07/31 17:28:55;;;;;;;677.83;626.05;;;18.40;81.20;;;;;;5076255;27;20093;-91
2023/07/31 17:31:24;;;;;;;677.67;625.58;;;18.30;81.30;;;;;;5076986;27;20062;-90
2023/07/31 17:33:50;;;;;;;694.42;640.33;;;18.30;81.40;;;;;;5057065;27;20089;-91